Tropical Cyclones
[Index]
Main Index Home Page Stock Weather Photos Extreme Storms Discussion Storm News and Storm Chasing Reports Tropical Cyclones / Hurricanes / Typhoons Weather Data and Links Wild Fires / Bushfires Weather Observation Techniques Weather Picture Catalogue Tornado Pictures and Reports Stock Video Footage and DVDs for sale
Season 1978-1979 Tropical Cyclone KEVIN Track Map
Season 1978-1979 Summaries: [BoM-AU] [JTWC-AU] [JTWC-SIO] [JTWC-SPAC] [JTWC-SH]
<<- Previous TC | BoM 1978-1979 Season | Next TC ->>

click for intensity scale information  Lat/long Grid: Show Hide

 Date Labels: Show Hide

Bureau of Meteorology Tropical Cyclone Data

Name: KEVIN
Number: 594 / 197879_11

02 May 1979 00:00 UTC to 12 May 1979 00:00 UTC

    date/time    lat    long    hPa   cat  kts
1979-05-02 00    4.3    94.7   1002                     
1979-05-02 06    4.5    94.4   1002                     
1979-05-02 12    4.6    93.9   1001                     
1979-05-02 18    4.6    93.5   1001                     
1979-05-03 00    4.6    93.1   1001                     
1979-05-03 06    4.6    92.8   1000                     
1979-05-03 12    4.7    92.5    999                     
1979-05-03 18    4.7    92.3    999                     
1979-05-04 00    4.8    92.1    998                     
1979-05-04 06    4.9    91.6    998                     
1979-05-04 12    5.2    90.8    997                     
1979-05-04 18    5.3    90.0    997                     
1979-05-05 00    5.4    89.0    996                     
1979-05-05 06    5.7    88.1    995    1                
1979-05-05 12    6.0    87.1    995    1                
1979-05-05 18    6.2    86.2    994    1                
1979-05-06 00    6.5    85.2    993    1                
1979-05-06 06    6.8    84.5    993    1                
1979-05-06 12    7.0    83.8    992    1                
1979-05-06 18    7.1    83.0    991    1                
1979-05-07 00    7.3    82.2    990    1                
1979-05-07 03    7.6    81.8    990    1                
1979-05-07 06    8.0    81.9    989    1                
1979-05-07 09    8.1    82.4    989    1                
1979-05-07 12    8.1    82.8    989    1                
1979-05-07 18    8.0    83.6    988    1                
1979-05-08 00    8.0    84.4    987    1                
1979-05-08 06    8.0    85.2    986    1                
1979-05-08 12    8.2    86.0    986    1                
1979-05-08 18    8.5    87.2    987    1                
1979-05-09 00    8.7    89.0    988    1                
1979-05-09 06    8.8    90.2    988    1                
1979-05-09 12    9.0    91.0    989    1                
1979-05-09 18    9.3    92.0    989    1                
1979-05-10 00    9.9    92.9    990    1                
1979-05-10 06   10.4    93.1    990    1                
1979-05-10 12   11.0    93.1    990    1                
1979-05-10 18   11.2    92.8    990    1                
1979-05-11 00   11.7    92.3    990    1                
1979-05-11 06   11.9    91.5    991    1                
1979-05-11 12   12.0    90.0    992    1                
1979-05-11 18   12.0    89.0    993    1                
1979-05-12 00   12.0    88.0    994    1                
Winds are 10-min average.

Tropical cyclone tracks developed by Michael Bath using data from the Bureau of Meteorology and Google Maps.


[Australian Severe Weather index] [Copyright Notice] [Email Contacts] [Search This Site] [Privacy Policy]
Document: tropical_cyclone_kevin.htm Updated: 30 May 2013